createdAt,value
2018-05-19T00:00:11.998Z,6.33
2018-05-19T00:02:38.465Z,5.90
2018-05-19T00:05:04.846Z,9.10
2018-05-19T00:07:31.229Z,6.30
2018-05-19T00:09:57.639Z,5.13
2018-05-19T00:12:24.041Z,5.73
2018-05-19T00:14:50.472Z,6.03
2018-05-19T00:17:16.880Z,6.87
2018-05-19T00:19:43.289Z,6.07
2018-05-19T00:22:09.642Z,6.50
2018-05-19T00:24:36.022Z,5.63
2018-05-19T00:27:02.406Z,6.87
2018-05-19T00:29:28.762Z,5.47
2018-05-19T00:31:55.259Z,5.80
2018-05-19T00:34:21.649Z,6.07
2018-05-19T00:36:48.024Z,7.17
2018-05-19T00:39:14.400Z,8.53
2018-05-19T00:41:40.780Z,6.50
2018-05-19T00:44:07.102Z,6.47
2018-05-19T00:46:33.438Z,6.10
2018-05-19T00:48:59.814Z,7.17
2018-05-19T00:51:26.177Z,6.17
2018-05-19T00:53:52.557Z,7.30
2018-05-19T00:56:18.951Z,6.90
2018-05-19T00:58:45.338Z,8.00
2018-05-19T01:01:11.669Z,7.30
2018-05-19T01:03:38.176Z,9.40
2018-05-19T01:06:04.548Z,6.90
2018-05-19T01:08:30.940Z,7.57
2018-05-19T01:10:57.290Z,11.37
2018-05-19T01:13:23.808Z,7.57
2018-05-19T01:15:50.178Z,9.10
2018-05-19T01:18:16.527Z,8.67
2018-05-19T01:20:42.898Z,7.63
2018-05-19T01:23:09.386Z,9.43
2018-05-19T01:25:35.844Z,8.00
2018-05-19T01:28:02.233Z,8.93
2018-05-19T01:30:28.588Z,7.43
2018-05-19T01:32:54.969Z,9.73
2018-05-19T01:35:21.330Z,6.93
2018-05-19T01:37:47.741Z,11.20
2018-05-19T01:40:14.169Z,7.37
2018-05-19T01:42:40.573Z,7.17
2018-05-19T01:45:06.993Z,7.80
2018-05-19T01:47:33.317Z,7.37
2018-05-19T01:49:59.652Z,9.87
2018-05-19T01:52:26.046Z,9.97
2018-05-19T01:54:52.417Z,9.17
2018-05-19T01:57:18.765Z,8.50
2018-05-19T01:59:45.107Z,10.10
2018-05-19T02:02:11.611Z,9.43
2018-05-19T02:04:38.018Z,10.20
2018-05-19T02:07:04.463Z,12.63
2018-05-19T02:09:30.893Z,12.90
2018-05-19T02:11:57.265Z,14.13
2018-05-19T02:14:23.694Z,12.17
2018-05-19T02:16:50.054Z,10.47
2018-05-19T02:19:16.460Z,12.50
2018-05-19T02:21:42.833Z,10.37
2018-05-19T02:24:09.186Z,10.07
2018-05-19T02:26:35.689Z,9.47
2018-05-19T02:29:02.102Z,9.23
2018-05-19T02:31:28.463Z,9.60
2018-05-19T02:33:54.842Z,9.10
2018-05-19T02:36:21.204Z,9.83
2018-05-19T02:38:47.556Z,10.83
2018-05-19T02:41:13.909Z,10.73
2018-05-19T02:43:40.341Z,12.93
2018-05-19T02:46:06.728Z,8.57
2018-05-19T02:48:33.137Z,8.67
2018-05-19T02:50:59.511Z,13.70
2018-05-19T02:53:25.902Z,9.73
2018-05-19T02:55:52.481Z,8.40
2018-05-19T02:58:18.865Z,9.07
2018-05-19T03:00:45.239Z,8.20
2018-05-19T03:03:11.638Z,8.97
2018-05-19T03:05:38.111Z,8.97
2018-05-19T03:08:04.523Z,8.97
2018-05-19T03:10:31.015Z,10.40
2018-05-19T03:12:57.390Z,9.80
2018-05-19T03:15:23.699Z,10.90
2018-05-19T03:17:50.226Z,8.93
2018-05-19T03:20:16.630Z,10.70
2018-05-19T03:22:43.148Z,10.67
2018-05-19T03:25:11.641Z,12.40
2018-05-19T03:27:38.047Z,11.57
2018-05-19T03:30:04.524Z,11.63
2018-05-19T03:32:30.938Z,12.03
2018-05-19T03:34:57.315Z,10.73
2018-05-19T03:37:23.721Z,11.07
2018-05-19T03:39:50.099Z,10.33
2018-05-19T03:42:17.345Z,10.87
2018-05-19T03:44:43.670Z,9.93
2018-05-19T03:47:10.148Z,9.73
2018-05-19T03:49:36.576Z,9.83
2018-05-19T03:52:02.983Z,12.70
2018-05-19T03:54:29.401Z,10.60
2018-05-19T04:10:21.415Z,11.83
2018-05-19T04:12:47.804Z,11.37
2018-05-19T04:15:14.318Z,10.23
2018-05-19T04:17:40.738Z,10.00
2018-05-19T04:20:07.267Z,9.63
2018-05-19T04:22:33.668Z,8.73
2018-05-19T04:25:00.861Z,9.17
2018-05-19T04:27:27.266Z,11.10
2018-05-19T04:29:53.610Z,10.37
2018-05-19T04:32:19.990Z,9.50
2018-05-19T04:34:46.387Z,11.93
2018-05-19T04:37:12.742Z,11.20
2018-05-19T04:39:39.114Z,11.73
2018-05-19T04:42:06.038Z,11.80
2018-05-19T04:44:32.429Z,14.97
2018-05-19T04:46:58.798Z,11.70
2018-05-19T04:49:25.105Z,9.10
2018-05-19T04:51:51.474Z,9.53
2018-05-19T04:54:17.813Z,8.60
2018-05-19T04:56:44.317Z,11.07
2018-05-19T04:59:10.655Z,10.50
2018-05-19T05:01:37.082Z,11.87
2018-05-19T05:04:03.568Z,10.50
2018-05-19T05:06:30.119Z,10.40
2018-05-19T05:08:56.501Z,8.53
2018-05-19T05:11:22.922Z,11.50
2018-05-19T05:13:49.363Z,8.73
2018-05-19T05:16:15.770Z,8.00
2018-05-19T05:18:42.158Z,7.63
2018-05-19T05:21:08.631Z,8.03
2018-05-19T05:23:35.035Z,7.90
2018-05-19T05:26:01.416Z,8.30
2018-05-19T05:28:27.850Z,8.13
2018-05-19T05:30:54.205Z,8.63
2018-05-19T05:33:20.577Z,9.40
2018-05-19T05:35:46.961Z,9.37
2018-05-19T05:38:13.332Z,8.17
2018-05-19T05:40:39.812Z,7.83
2018-05-19T05:43:06.172Z,8.10
2018-05-19T05:45:32.605Z,8.37
2018-05-19T05:47:58.990Z,7.80
2018-05-19T05:50:25.358Z,8.27
2018-05-19T05:52:51.726Z,8.77
2018-05-19T05:55:18.135Z,12.17
2018-05-19T05:57:44.696Z,10.10
2018-05-19T06:00:11.179Z,12.07
2018-05-19T06:02:37.682Z,9.00
2018-05-19T06:05:04.075Z,8.10
2018-05-19T06:07:30.723Z,8.87
2018-05-19T06:09:57.916Z,8.97
2018-05-19T06:12:30.226Z,8.77
2018-05-19T06:14:56.943Z,9.30
2018-05-19T06:17:23.313Z,8.40
2018-05-19T06:19:49.701Z,9.33
2018-05-19T06:22:16.193Z,9.33
2018-05-19T06:24:42.768Z,9.17
2018-05-19T06:27:09.671Z,10.27
2018-05-19T06:29:36.430Z,11.13
2018-05-19T06:32:03.139Z,10.77
2018-05-19T06:34:29.475Z,10.20
2018-05-19T06:36:55.873Z,11.03
2018-05-19T06:39:22.241Z,12.13
2018-05-19T06:41:48.611Z,12.00
2018-05-19T06:44:15.176Z,11.40
2018-05-19T06:46:41.590Z,11.63
2018-05-19T06:49:08.241Z,8.73
2018-05-19T06:51:34.835Z,14.07
2018-05-19T06:54:01.267Z,8.47
2018-05-19T06:56:27.754Z,10.80
2018-05-19T06:58:54.122Z,8.87
2018-05-19T07:01:20.602Z,8.13
2018-05-19T07:03:46.978Z,9.23
2018-05-19T07:06:13.488Z,8.83
2018-05-19T07:08:39.836Z,8.00
2018-05-19T07:11:06.227Z,7.33
2018-05-19T07:13:33.092Z,8.37
2018-05-19T07:15:59.610Z,8.67
2018-05-19T07:18:25.974Z,7.97
2018-05-19T07:20:52.332Z,7.60
2018-05-19T07:23:18.742Z,10.77
2018-05-19T07:25:45.154Z,8.43
2018-05-19T07:28:11.733Z,6.20
2018-05-19T07:30:38.293Z,7.50
2018-05-19T07:33:04.711Z,8.93
2018-05-19T07:35:31.113Z,9.33
2018-05-19T07:37:57.617Z,8.67
2018-05-19T07:40:24.410Z,6.73
2018-05-19T07:42:50.821Z,7.63
2018-05-19T07:45:17.186Z,6.67
2018-05-19T07:47:43.555Z,7.93
2018-05-19T07:50:09.917Z,7.90
2018-05-19T07:52:37.982Z,10.07
2018-05-19T07:55:06.314Z,7.73
2018-05-19T07:57:33.348Z,7.43
2018-05-19T07:59:59.982Z,9.57
2018-05-19T08:02:26.430Z,9.30
2018-05-19T08:04:52.842Z,8.40
2018-05-19T08:07:27.270Z,8.77
2018-05-19T08:09:53.650Z,8.50
2018-05-19T08:12:20.107Z,9.27
2018-05-19T08:14:47.106Z,7.27
2018-05-19T08:17:13.486Z,7.40
2018-05-19T08:19:40.098Z,7.37
2018-05-19T08:22:06.583Z,7.03
2018-05-19T08:24:33.270Z,6.43
2018-05-19T08:26:59.663Z,9.07
2018-05-19T08:29:26.139Z,6.87
2018-05-19T08:31:52.778Z,8.60
2018-05-19T08:34:19.262Z,6.33
2018-05-19T08:36:45.819Z,9.20
2018-05-19T08:39:12.258Z,7.30
2018-05-19T08:41:38.657Z,7.60
2018-05-19T08:44:05.163Z,9.00
2018-05-19T08:46:33.489Z,7.73
2018-05-19T08:49:00.386Z,7.30
2018-05-19T08:51:26.999Z,6.37
2018-05-19T08:53:53.911Z,7.07
2018-05-19T08:56:20.586Z,5.30
2018-05-19T09:02:32.767Z,5.77
2018-05-19T09:04:59.321Z,9.07
2018-05-19T09:07:25.710Z,9.10
2018-05-19T09:09:52.127Z,6.57
2018-05-19T09:12:18.505Z,7.93
2018-05-19T09:14:44.930Z,7.57
2018-05-19T09:17:11.316Z,7.53
2018-05-19T09:19:37.702Z,7.97
2018-05-19T09:22:04.188Z,7.73
2018-05-19T09:24:30.581Z,10.10
2018-05-19T09:26:57.055Z,7.63
2018-05-19T09:29:23.438Z,9.70
2018-05-19T09:31:50.001Z,8.37
2018-05-19T09:34:16.378Z,8.00
2018-05-19T09:36:42.758Z,10.40
2018-05-19T09:39:09.165Z,9.53
2018-05-19T09:41:35.552Z,8.77
2018-05-19T09:44:01.947Z,7.83
2018-05-19T09:46:28.298Z,7.67
2018-05-19T09:48:54.751Z,10.10
2018-05-19T09:51:21.281Z,7.40
2018-05-19T09:53:47.689Z,6.50
2018-05-19T09:56:14.218Z,6.70
2018-05-19T09:58:40.574Z,5.60
2018-05-19T10:01:07.006Z,7.43
2018-05-19T10:03:33.378Z,7.63
2018-05-19T10:05:59.785Z,7.90
2018-05-19T10:08:26.146Z,4.87
2018-05-19T10:10:52.591Z,9.03
2018-05-19T10:13:19.457Z,5.83
2018-05-19T10:15:45.924Z,4.90
2018-05-19T10:18:12.330Z,5.47
2018-05-19T10:20:38.754Z,4.73
2018-05-19T10:23:05.392Z,4.63
2018-05-19T10:25:31.750Z,8.00
2018-05-19T10:27:58.145Z,7.00
2018-05-19T10:30:24.531Z,6.17
2018-05-19T10:32:50.942Z,7.47
2018-05-19T10:35:17.351Z,7.30
2018-05-19T10:37:43.727Z,7.97
2018-05-19T10:40:10.123Z,8.87
2018-05-19T10:42:36.546Z,8.30
2018-05-19T10:45:02.990Z,7.10
2018-05-19T10:47:29.440Z,8.47
2018-05-19T10:49:56.977Z,7.80
2018-05-19T10:52:23.609Z,7.93
2018-05-19T10:54:50.615Z,9.03
2018-05-19T10:57:17.047Z,7.87
2018-05-19T10:59:43.445Z,8.87
2018-05-19T11:02:09.837Z,10.00
2018-05-19T11:04:36.193Z,9.70
2018-05-19T11:07:02.724Z,10.73
2018-05-19T11:09:30.129Z,10.00
2018-05-19T11:11:56.531Z,9.90
2018-05-19T11:14:23.009Z,10.17
2018-05-19T11:16:49.431Z,9.43
2018-05-19T11:19:16.887Z,10.73
2018-05-19T11:21:43.323Z,9.57
2018-05-19T11:24:10.706Z,11.83
2018-05-19T11:26:37.132Z,9.03
2018-05-19T11:29:03.492Z,10.00
2018-05-19T11:31:29.879Z,8.20
2018-05-19T11:33:56.426Z,10.43
2018-05-19T11:36:22.789Z,11.23
2018-05-19T11:38:50.527Z,8.73
2018-05-19T11:41:17.862Z,8.87
2018-05-19T11:43:44.265Z,8.87
2018-05-19T11:46:10.678Z,13.13
2018-05-19T11:48:37.069Z,8.47
2018-05-19T11:51:03.416Z,7.63
2018-05-19T11:53:29.942Z,8.37
2018-05-19T11:55:56.459Z,7.40
2018-05-19T11:58:22.870Z,9.27
2018-05-19T12:00:49.353Z,9.90
2018-05-19T12:03:15.737Z,8.33
2018-05-19T12:05:42.202Z,9.23
2018-05-19T12:08:08.735Z,7.47
2018-05-19T12:10:35.235Z,8.00
2018-05-19T12:13:01.638Z,7.60
2018-05-19T12:15:28.906Z,6.37
2018-05-19T12:17:55.405Z,8.17
2018-05-19T12:20:21.794Z,7.00
2018-05-19T12:22:48.227Z,7.20
2018-05-19T12:25:14.813Z,7.17
2018-05-19T12:27:41.201Z,5.90
2018-05-19T12:30:07.631Z,6.47
2018-05-19T12:32:34.805Z,6.60
2018-05-19T12:35:01.177Z,7.13
2018-05-19T12:37:27.541Z,6.87
2018-05-19T12:39:53.954Z,4.20
2018-05-19T12:42:20.453Z,5.40
2018-05-19T12:44:46.845Z,5.27
2018-05-19T12:47:13.287Z,7.67
2018-05-19T12:49:39.697Z,4.43
2018-05-19T12:52:06.086Z,5.07
2018-05-19T12:54:32.605Z,4.57
2018-05-19T12:56:59.113Z,6.20
2018-05-19T12:59:25.588Z,6.97
2018-05-19T13:01:52.042Z,6.93
2018-05-19T13:04:18.403Z,4.30
2018-05-19T13:06:44.821Z,5.07
2018-05-19T13:09:11.261Z,6.83
2018-05-19T13:11:37.612Z,4.87
2018-05-19T13:14:04.072Z,6.57
2018-05-19T13:16:30.586Z,5.23
2018-05-19T13:18:57.513Z,5.87
2018-05-19T13:21:23.965Z,6.07
2018-05-19T13:23:50.421Z,6.17
2018-05-19T13:26:16.856Z,8.60
2018-05-19T13:28:43.261Z,6.23
2018-05-19T13:31:09.674Z,5.10
2018-05-19T13:33:36.024Z,5.37
2018-05-19T13:36:02.474Z,5.20
2018-05-19T13:38:28.997Z,9.83
2018-05-19T13:40:55.369Z,5.03
2018-05-19T13:43:21.761Z,7.30
2018-05-19T13:45:48.222Z,5.60
2018-05-19T13:48:14.630Z,4.97
2018-05-19T13:50:41.033Z,5.37
2018-05-19T13:53:07.583Z,4.57
2018-05-19T13:55:34.007Z,5.00
2018-05-19T13:58:01.173Z,5.13
2018-05-19T14:00:27.569Z,6.83
2018-05-19T14:02:53.972Z,4.67
2018-05-19T14:05:20.488Z,5.30
2018-05-19T14:07:47.659Z,4.47
2018-05-19T14:10:14.087Z,6.63
2018-05-19T14:12:40.501Z,8.13
2018-05-19T14:15:06.974Z,5.67
2018-05-19T14:17:33.378Z,5.40
2018-05-19T14:19:59.773Z,6.47
2018-05-19T14:22:26.226Z,4.57
2018-05-19T14:24:52.622Z,5.17
2018-05-19T14:27:19.042Z,6.67
2018-05-19T14:29:45.451Z,5.67
2018-05-19T14:32:11.862Z,7.13
2018-05-19T14:34:38.258Z,4.37
2018-05-19T14:37:04.708Z,5.83
2018-05-19T14:39:31.106Z,5.50
2018-05-19T14:41:57.635Z,4.47
2018-05-19T14:44:24.050Z,3.73
2018-05-19T14:46:50.422Z,6.63
2018-05-19T14:49:16.830Z,4.87
2018-05-19T14:51:43.203Z,4.70
2018-05-19T14:54:09.637Z,6.57
2018-05-19T14:56:36.071Z,3.60
2018-05-19T14:59:02.485Z,4.60
2018-05-19T15:01:28.845Z,4.20
2018-05-19T15:03:55.252Z,5.73
2018-05-19T15:06:21.798Z,4.93
2018-05-19T15:08:49.178Z,5.60
2018-05-19T15:11:15.568Z,5.90
2018-05-19T15:13:41.957Z,5.17
2018-05-19T15:16:08.413Z,5.17
2018-05-19T15:18:35.187Z,5.70
2018-05-19T15:21:01.799Z,6.43
2018-05-19T15:23:28.198Z,6.23
2018-05-19T15:25:54.563Z,6.27
2018-05-19T15:28:20.961Z,6.37
2018-05-19T15:30:47.423Z,6.13
2018-05-19T15:33:13.789Z,7.63
2018-05-19T15:35:40.206Z,7.43
2018-05-19T15:38:06.622Z,6.57
2018-05-19T15:40:32.980Z,5.53
2018-05-19T15:42:59.353Z,10.00
2018-05-19T15:45:25.750Z,8.37
2018-05-19T15:47:52.134Z,6.10
2018-05-19T15:50:18.465Z,8.53
2018-05-19T15:52:44.862Z,7.23
2018-05-19T15:55:12.167Z,8.40
2018-05-19T15:57:38.601Z,5.57
2018-05-19T16:00:05.035Z,7.27
2018-05-19T16:02:31.412Z,9.13
2018-05-19T16:04:57.821Z,8.50
2018-05-19T16:07:24.179Z,7.43
2018-05-19T16:09:51.510Z,8.30
2018-05-19T16:12:17.898Z,15.57
2018-05-19T16:14:44.321Z,25.77
2018-05-19T16:17:10.741Z,23.27
2018-05-19T16:19:37.090Z,89.20
2018-05-19T16:22:03.499Z,31.87
2018-05-19T16:24:29.886Z,392.27
2018-05-19T16:26:56.282Z,554.40
2018-05-19T16:29:22.681Z,396.70
2018-05-19T16:31:49.053Z,339.47
2018-05-19T16:34:15.449Z,350.47
2018-05-19T16:36:41.947Z,142.40
2018-05-19T16:39:08.366Z,88.63
2018-05-19T16:41:34.805Z,73.63
2018-05-19T16:44:01.196Z,121.37
2018-05-19T16:46:27.577Z,159.83
2018-05-19T16:48:53.956Z,36.03
2018-05-19T16:51:20.317Z,19.00
2018-05-19T16:53:46.704Z,14.70
2018-05-19T16:56:13.620Z,10.03
2018-05-19T16:58:40.037Z,10.60
2018-05-19T17:01:06.413Z,11.23
2018-05-19T17:03:32.954Z,14.23
2018-05-19T17:05:59.361Z,18.10
2018-05-19T17:08:25.708Z,8.83
2018-05-19T17:10:52.168Z,9.93
2018-05-19T17:13:18.548Z,13.33
2018-05-19T17:15:44.880Z,13.40
2018-05-19T17:18:11.286Z,11.03
2018-05-19T17:20:37.801Z,9.57
2018-05-19T17:23:04.257Z,15.53
2018-05-19T17:25:30.665Z,14.30
2018-05-19T17:27:57.163Z,14.70
2018-05-19T17:30:23.686Z,11.43
2018-05-19T17:32:50.099Z,15.87
2018-05-19T17:35:16.777Z,11.70
2018-05-19T17:37:43.497Z,13.00
2018-05-19T17:40:09.927Z,11.27
2018-05-19T17:42:36.452Z,12.07
2018-05-19T17:45:02.930Z,9.97
2018-05-19T17:47:29.362Z,8.10
2018-05-19T17:49:55.744Z,7.23
2018-05-19T17:52:22.202Z,7.57
2018-05-19T17:54:48.611Z,9.13
2018-05-19T17:57:15.040Z,7.57
2018-05-19T17:59:41.418Z,6.87
2018-05-19T18:02:07.832Z,9.47
2018-05-19T18:04:34.243Z,8.93
2018-05-19T18:07:00.641Z,10.57
2018-05-19T18:09:27.025Z,11.73
2018-05-19T18:11:53.418Z,9.87
2018-05-19T18:14:19.830Z,10.57
2018-05-19T18:16:46.229Z,11.33
2018-05-19T18:19:12.586Z,9.93
2018-05-19T18:21:39.044Z,8.87
2018-05-19T18:24:05.428Z,10.67
2018-05-19T18:26:31.782Z,14.70
2018-05-19T18:28:58.294Z,8.83
2018-05-19T18:31:24.696Z,10.20
2018-05-19T18:33:51.089Z,12.70
2018-05-19T18:36:17.493Z,10.10
2018-05-19T18:38:43.905Z,10.60
2018-05-19T18:41:11.393Z,9.40
2018-05-19T18:43:37.786Z,9.27
2018-05-19T18:46:04.189Z,8.73
2018-05-19T18:48:30.761Z,9.43
2018-05-19T18:50:57.145Z,8.50
2018-05-19T18:53:23.577Z,7.63
2018-05-19T18:55:50.027Z,7.43
2018-05-19T18:58:16.939Z,7.30
2018-05-19T19:00:43.466Z,10.73
2018-05-19T19:03:09.907Z,5.93
2018-05-19T19:05:37.254Z,6.00
2018-05-19T19:08:03.630Z,8.03
2018-05-19T19:10:30.022Z,7.87
2018-05-19T19:12:56.417Z,10.20
2018-05-19T19:15:22.859Z,8.93
2018-05-19T19:17:49.252Z,7.93
2018-05-19T19:20:15.754Z,7.20
2018-05-19T19:22:42.261Z,9.90
2018-05-19T19:25:08.622Z,8.37
2018-05-19T19:27:35.233Z,8.47
2018-05-19T19:30:01.601Z,6.73
2018-05-19T19:32:28.123Z,8.63
2018-05-19T19:34:54.421Z,8.40
2018-05-19T19:37:20.766Z,9.63
2018-05-19T19:39:47.328Z,6.90
2018-05-19T19:42:13.756Z,7.27
2018-05-19T19:44:41.126Z,6.83
2018-05-19T19:47:07.469Z,9.40
2018-05-19T19:49:33.875Z,10.23
2018-05-19T19:52:00.207Z,9.87
2018-05-19T19:54:26.630Z,8.93
2018-05-19T19:56:52.993Z,8.80
2018-05-19T19:59:26.483Z,10.83
2018-05-19T20:01:52.906Z,11.23
2018-05-19T20:04:19.314Z,11.97
2018-05-19T20:06:45.680Z,9.27
2018-05-19T20:09:12.942Z,9.53
2018-05-19T20:11:39.332Z,11.77
2018-05-19T20:14:05.753Z,10.70
2018-05-19T20:16:32.066Z,9.50
2018-05-19T20:18:58.454Z,13.97
2018-05-19T20:21:24.859Z,10.23
2018-05-19T20:23:52.062Z,10.47
2018-05-19T20:26:18.574Z,12.60
2018-05-19T20:28:44.981Z,13.87
2018-05-19T20:31:11.415Z,8.23
2018-05-19T20:33:37.794Z,11.03
2018-05-19T20:36:04.410Z,10.50
2018-05-19T20:38:30.812Z,10.63
2018-05-19T20:40:57.201Z,10.57
2018-05-19T20:43:23.741Z,12.00
2018-05-19T20:45:50.172Z,12.17
2018-05-19T20:48:16.542Z,11.13
2018-05-19T20:50:42.942Z,12.57
2018-05-19T20:53:09.326Z,11.03
2018-05-19T20:55:35.745Z,12.30
2018-05-19T20:58:02.307Z,13.70
2018-05-19T21:00:28.713Z,11.03
2018-05-19T21:02:55.088Z,11.70
2018-05-19T21:05:21.506Z,16.53
2018-05-19T21:07:47.940Z,9.10
2018-05-19T21:10:14.313Z,14.77
2018-05-19T21:12:40.677Z,13.20
2018-05-19T21:15:07.018Z,12.17
2018-05-19T21:17:33.379Z,15.97
2018-05-19T21:19:59.902Z,12.63
2018-05-19T21:22:26.306Z,10.77
2018-05-19T21:24:52.681Z,13.40
2018-05-19T21:27:19.085Z,12.33
2018-05-19T21:29:45.490Z,17.70
2018-05-19T21:32:11.921Z,12.83
2018-05-19T21:34:38.282Z,12.10
2018-05-19T21:37:04.681Z,10.73
2018-05-19T21:39:31.091Z,12.83
2018-05-19T21:41:57.442Z,12.60
2018-05-19T21:44:23.852Z,9.97
2018-05-19T21:46:50.277Z,11.13
2018-05-19T21:49:16.694Z,11.03
2018-05-19T21:51:43.127Z,9.93
2018-05-19T21:54:09.510Z,12.20
2018-05-19T21:56:35.910Z,11.23
2018-05-19T21:59:02.354Z,12.60
2018-05-19T22:01:28.774Z,11.57
2018-05-19T22:03:55.295Z,24.40
2018-05-19T22:06:21.729Z,19.97
2018-05-19T22:08:48.143Z,10.40
2018-05-19T22:11:14.627Z,11.00
2018-05-19T22:13:41.008Z,11.00
2018-05-19T22:16:07.482Z,8.80
2018-05-19T22:18:33.872Z,11.50
2018-05-19T22:21:00.228Z,12.80
2018-05-19T22:23:26.764Z,8.20
2018-05-19T22:25:53.166Z,9.47
2018-05-19T22:28:19.556Z,11.93
2018-05-19T22:30:45.938Z,8.90
2018-05-19T22:33:12.314Z,11.40
2018-05-19T22:35:38.697Z,9.83
2018-05-19T22:38:05.161Z,8.50
2018-05-19T22:40:31.542Z,11.87
2018-05-19T22:42:57.937Z,9.47
2018-05-19T22:45:24.406Z,11.93
2018-05-19T22:47:50.931Z,7.87
2018-05-19T22:50:17.432Z,10.27
2018-05-19T22:52:44.465Z,11.90
2018-05-19T22:55:10.918Z,9.60
2018-05-19T22:57:37.318Z,14.20
2018-05-19T23:00:03.748Z,9.43
2018-05-19T23:02:30.058Z,7.17
2018-05-19T23:04:56.477Z,9.27
2018-05-19T23:07:23.779Z,7.93
2018-05-19T23:09:50.154Z,9.00
2018-05-19T23:12:16.537Z,8.20
2018-05-19T23:14:42.954Z,10.63
2018-05-19T23:17:09.302Z,10.13
2018-05-19T23:19:35.687Z,9.80
2018-05-19T23:22:02.096Z,12.70
2018-05-19T23:24:28.532Z,14.40
2018-05-19T23:26:54.917Z,11.87
2018-05-19T23:29:21.246Z,14.23
2018-05-19T23:31:47.660Z,10.10
2018-05-19T23:34:14.038Z,8.00
2018-05-19T23:36:40.500Z,11.03
2018-05-19T23:39:06.933Z,10.03
2018-05-19T23:41:33.453Z,11.37
2018-05-19T23:43:59.798Z,9.40
2018-05-19T23:46:26.205Z,8.60
2018-05-19T23:48:52.646Z,8.93
2018-05-19T23:51:19.058Z,9.90
2018-05-19T23:53:45.445Z,9.17
2018-05-19T23:56:11.805Z,10.77
2018-05-19T23:58:38.180Z,8.40
